Time;durP1;ratioP1;P1;durP2;ratioP2;P2;SDS_P1;SDS_P2;PMS_P1;PMS_P2;Temp;Humidity;BMP_temperature;BMP_pressure;BME280_temperature;BME280_humidity;BME280_pressure;Samples;Min_cycle;Max_cycle;Signal;HPM_P1;HPM_P2
2022/04/05 04:06:27;;;;;;;8.17;6.27;;;3.70;99.90;;;;;;4961367;23;20268;-75
2022/04/05 04:09:01;;;;;;;8.43;6.23;;;3.70;99.90;;;;;;4905083;29;20637;-77
2022/04/05 04:11:29;;;;;;;7.47;6.43;;;3.80;99.90;;;;;;4907404;29;20292;-77
2022/04/05 04:13:58;;;;;;;8.40;6.40;;;3.80;99.90;;;;;;4908684;29;20275;-79
2022/04/05 04:16:26;;;;;;;7.27;6.50;;;3.70;99.90;;;;;;4907840;29;20210;-76
2022/04/05 04:18:54;;;;;;;8.47;6.67;;;3.60;99.90;;;;;;4906452;29;20210;-78
2022/04/05 04:21:23;;;;;;;9.23;7.33;;;3.50;99.90;;;;;;4906890;29;20563;-80
2022/04/05 04:23:52;;;;;;;7.80;6.87;;;3.60;99.90;;;;;;4910278;29;20220;-78
2022/04/05 04:26:20;;;;;;;8.93;6.83;;;3.60;99.90;;;;;;4916872;29;20457;-79
2022/04/05 04:28:52;;;;;;;7.87;6.70;;;3.60;99.90;;;;;;4917075;29;20220;-76
2022/04/05 04:31:20;;;;;;;9.57;7.27;;;3.70;99.90;;;;;;4916080;29;20644;-76
2022/04/05 04:33:49;;;;;;;11.27;6.47;;;3.70;99.90;;;;;;4897932;29;20610;-76
2022/04/05 04:36:17;;;;;;;9.07;7.03;;;3.70;99.90;;;;;;4897565;29;20998;-78
2022/04/05 04:38:45;;;;;;;8.33;6.70;;;3.70;99.90;;;;;;4897915;29;20553;-77
2022/04/05 04:41:15;;;;;;;7.73;6.60;;;3.70;99.90;;;;;;4898225;29;20635;-78
2022/04/05 04:43:43;;;;;;;9.77;6.90;;;3.70;99.90;;;;;;4896838;29;20244;-77
2022/04/05 04:46:12;;;;;;;8.60;7.20;;;3.70;99.90;;;;;;4897826;29;20542;-78
2022/04/05 04:48:40;;;;;;;9.17;7.23;;;3.70;99.90;;;;;;4897811;29;20457;-80
2022/04/05 04:51:09;;;;;;;9.20;7.30;;;3.60;99.90;;;;;;4897765;29;20313;-77
2022/04/05 04:53:37;;;;;;;8.37;7.20;;;3.60;99.90;;;;;;4897446;29;20682;-78
2022/04/05 04:56:05;;;;;;;8.03;6.67;;;3.60;99.90;;;;;;4897460;29;20202;-78
2022/04/05 04:58:39;;;;;;;9.63;7.23;;;3.60;99.90;;;;;;4902980;29;20919;-78
2022/04/05 05:01:07;;;;;;;8.43;7.20;;;3.50;99.90;;;;;;4916134;29;20303;-79
2022/04/05 05:03:35;;;;;;;11.17;7.93;;;3.50;99.90;;;;;;4898214;29;20214;-79
2022/04/05 05:06:04;;;;;;;8.83;7.70;;;3.50;99.90;;;;;;4896113;29;20264;-78
2022/04/05 05:08:33;;;;;;;8.67;7.40;;;3.50;99.90;;;;;;4895879;29;20738;-76
2022/04/05 05:11:01;;;;;;;10.10;8.00;;;3.50;99.90;;;;;;4895356;29;20897;-77
2022/04/05 05:13:31;;;;;;;11.17;8.83;;;3.50;99.90;;;;;;4896665;29;20214;-78
2022/04/05 05:16:01;;;;;;;11.37;8.80;;;3.50;99.90;;;;;;4897949;29;20217;-76
2022/04/05 05:18:29;;;;;;;9.30;8.00;;;3.50;99.90;;;;;;4902420;29;20209;-76
2022/04/05 05:20:57;;;;;;;9.87;8.40;;;3.40;99.90;;;;;;4900264;29;20256;-78
2022/04/05 05:23:25;;;;;;;11.50;8.50;;;3.50;99.90;;;;;;4901121;29;20316;-76
2022/04/05 05:25:54;;;;;;;10.10;8.43;;;3.50;99.90;;;;;;4901939;29;20450;-75
2022/04/05 05:28:21;;;;;;;9.43;8.43;;;3.60;99.90;;;;;;4899840;29;20472;-77
2022/04/05 05:30:49;;;;;;;11.13;8.90;;;3.60;99.90;;;;;;4899455;29;20308;-78
2022/04/05 05:33:19;;;;;;;12.07;8.90;;;3.60;99.90;;;;;;4899594;29;20213;-78
2022/04/05 05:35:48;;;;;;;11.67;8.60;;;3.60;99.90;;;;;;4897758;29;20327;-78
2022/04/05 05:38:16;;;;;;;11.63;8.97;;;3.60;99.90;;;;;;4896666;29;20264;-79
2022/04/05 05:40:45;;;;;;;11.83;9.17;;;3.70;99.90;;;;;;4896874;29;20213;-78
2022/04/05 05:43:13;;;;;;;10.83;9.13;;;3.70;99.90;;;;;;4896703;29;20478;-78
2022/04/05 05:45:41;;;;;;;10.40;8.63;;;3.70;99.90;;;;;;4897140;29;20483;-79
2022/04/05 05:48:10;;;;;;;13.70;9.03;;;3.70;99.90;;;;;;4896878;29;20956;-77
2022/04/05 05:50:39;;;;;;;12.63;8.90;;;3.80;99.90;;;;;;4896528;29;20705;-79
2022/04/05 05:53:08;;;;;;;10.93;8.77;;;3.70;99.90;;;;;;4896133;29;20249;-77
2022/04/05 05:55:36;;;;;;;11.10;9.37;;;3.80;99.90;;;;;;4897324;29;20320;-79
2022/04/05 05:58:04;;;;;;;14.77;10.37;;;3.70;99.90;;;;;;4898244;29;20868;-75
2022/04/05 06:00:33;;;;;;;11.83;9.60;;;3.70;99.90;;;;;;4911996;29;20221;-76
2022/04/05 06:03:03;;;;;;;11.83;9.43;;;3.70;99.90;;;;;;4904448;29;20216;-81
2022/04/05 06:05:32;;;;;;;11.10;9.73;;;3.80;99.90;;;;;;4897010;29;20248;-78
2022/04/05 06:08:01;;;;;;;11.47;10.13;;;3.70;99.90;;;;;;4897358;29;20541;-77
2022/04/05 06:10:32;;;;;;;11.67;10.17;;;3.70;99.90;;;;;;4896989;29;20464;-77
2022/04/05 06:13:00;;;;;;;11.83;9.73;;;3.70;99.90;;;;;;4896584;29;20653;-79
2022/04/05 06:15:29;;;;;;;11.73;10.17;;;3.70;99.90;;;;;;4897114;29;20363;-79
2022/04/05 06:17:59;;;;;;;12.30;10.43;;;3.70;99.90;;;;;;4897298;29;20541;-80
2022/04/05 06:20:28;;;;;;;12.27;10.30;;;3.70;99.90;;;;;;4896525;29;20565;-78
2022/04/05 06:22:58;;;;;;;14.50;10.70;;;3.60;99.90;;;;;;4896759;29;20233;-80
2022/04/05 06:25:29;;;;;;;13.13;10.93;;;3.60;99.90;;;;;;4896913;29;20292;-79
2022/04/05 06:28:01;;;;;;;11.93;10.70;;;3.70;99.90;;;;;;4896879;29;20581;-79
2022/04/05 06:30:33;;;;;;;12.70;10.63;;;3.70;99.90;;;;;;4896769;29;20435;-76
2022/04/05 06:33:06;;;;;;;12.83;10.23;;;3.70;99.90;;;;;;4897187;29;20281;-80
2022/04/05 06:35:36;;;;;;;12.13;10.83;;;3.70;99.90;;;;;;4896510;29;20583;-79
2022/04/05 06:38:04;;;;;;;11.27;10.03;;;3.80;99.90;;;;;;4896746;29;20313;-77
2022/04/05 06:40:34;;;;;;;12.50;11.17;;;3.80;99.90;;;;;;4896601;29;20213;-79
2022/04/05 06:43:02;;;;;;;13.20;10.90;;;3.80;99.90;;;;;;4895942;29;20258;-79
2022/04/05 06:45:31;;;;;;;12.80;10.43;;;3.80;99.90;;;;;;4906903;29;20857;-80
2022/04/05 06:48:00;;;;;;;13.27;10.33;;;3.80;99.90;;;;;;4897784;29;20222;-76
2022/04/05 06:50:28;;;;;;;12.33;10.10;;;3.80;99.90;;;;;;4908909;29;20335;-77
2022/04/05 06:52:59;;;;;;;13.03;10.20;;;3.80;99.90;;;;;;4915679;29;20782;-77
2022/04/05 06:55:28;;;;;;;13.63;11.03;;;3.80;99.90;;;;;;4913946;29;20734;-77
2022/04/05 06:57:57;;;;;;;11.37;10.03;;;3.90;99.90;;;;;;4901437;29;20250;-79
2022/04/05 07:00:26;;;;;;;12.40;10.17;;;3.90;99.90;;;;;;4908794;29;20242;-79
2022/04/05 07:02:56;;;;;;;13.63;10.60;;;4.00;99.90;;;;;;4915266;29;20241;-78
2022/04/05 07:05:24;;;;;;;11.27;9.80;;;4.00;99.90;;;;;;4919221;29;20283;-78
2022/04/05 07:07:52;;;;;;;12.43;10.30;;;4.00;99.90;;;;;;4919357;29;20209;-77
2022/04/05 07:10:22;;;;;;;10.63;9.53;;;3.90;99.90;;;;;;4918864;29;20276;-77
2022/04/05 07:12:51;;;;;;;11.73;9.90;;;3.90;99.90;;;;;;4918850;29;20276;-77
2022/04/05 07:15:21;;;;;;;11.63;10.03;;;4.00;99.90;;;;;;4918651;29;20710;-77
2022/04/05 07:17:49;;;;;;;11.30;10.10;;;4.00;99.90;;;;;;4919184;29;20212;-80
2022/04/05 07:20:34;;;;;;;11.50;9.87;;;4.00;99.90;;;;;;4918882;29;20194;-78
2022/04/05 07:23:03;;;;;;;12.80;10.27;;;4.00;99.90;;;;;;4919133;29;20216;-79
2022/04/05 07:25:31;;;;;;;12.50;9.90;;;4.00;99.90;;;;;;4919337;29;20326;-79
2022/04/05 07:28:02;;;;;;;11.13;9.57;;;4.00;99.90;;;;;;4919512;29;20691;-79
2022/04/05 07:30:31;;;;;;;12.60;9.17;;;4.00;99.90;;;;;;4923135;29;20669;-76
2022/04/05 07:32:59;;;;;;;10.93;9.63;;;4.00;99.90;;;;;;4933178;29;20196;-76
2022/04/05 07:35:28;;;;;;;12.07;10.13;;;4.00;99.90;;;;;;4925259;29;20846;-77
2022/04/05 07:37:57;;;;;;;12.00;9.83;;;4.10;99.90;;;;;;4921082;29;20225;-76
2022/04/05 07:40:27;;;;;;;11.67;9.77;;;4.10;99.90;;;;;;4903879;29;20217;-77
2022/04/05 07:42:55;;;;;;;12.90;9.87;;;4.20;99.90;;;;;;4904269;29;20198;-79
2022/04/05 07:45:23;;;;;;;11.83;9.80;;;4.10;99.90;;;;;;4920839;29;20213;-79
2022/04/05 07:47:56;;;;;;;11.33;8.67;;;4.20;99.90;;;;;;4918796;29;20293;-79
2022/04/05 07:50:24;;;;;;;10.30;9.20;;;4.30;99.90;;;;;;4905364;29;20248;-76
2022/04/05 07:52:53;;;;;;;10.83;9.10;;;4.30;99.90;;;;;;4902580;29;20645;-77
2022/04/05 07:55:21;;;;;;;12.33;9.60;;;4.30;99.90;;;;;;4904188;29;20230;-76
2022/04/05 07:57:49;;;;;;;11.93;9.40;;;4.30;99.90;;;;;;4899952;29;20213;-78
2022/04/05 08:00:19;;;;;;;10.60;8.60;;;4.40;99.90;;;;;;4905288;29;20212;-77
2022/04/05 08:02:47;;;;;;;10.63;8.80;;;4.40;99.90;;;;;;4911219;29;20630;-76
2022/04/05 08:05:17;;;;;;;10.60;9.13;;;4.40;99.90;;;;;;4905027;29;20365;-80
2022/04/05 08:07:47;;;;;;;9.47;8.47;;;4.50;99.90;;;;;;4898733;29;20265;-76
2022/04/05 08:10:16;;;;;;;12.07;9.30;;;4.50;99.90;;;;;;4908817;29;20224;-78
2022/04/05 08:12:47;;;;;;;9.50;8.50;;;4.50;99.90;;;;;;4899335;29;20214;-78
2022/04/05 08:15:18;;;;;;;10.83;8.67;;;4.50;99.90;;;;;;4903669;29;20700;-77
2022/04/05 08:17:47;;;;;;;11.30;8.13;;;4.60;99.90;;;;;;4906621;29;20202;-78
2022/04/05 08:20:17;;;;;;;9.43;8.10;;;4.70;99.90;;;;;;4899595;29;20214;-79
2022/04/05 08:22:47;;;;;;;9.23;8.10;;;4.70;99.90;;;;;;4905802;29;20232;-80
2022/04/05 08:25:17;;;;;;;10.07;7.77;;;4.80;99.90;;;;;;4907649;29;20209;-78
2022/04/05 08:27:46;;;;;;;8.87;7.20;;;4.80;99.90;;;;;;4910160;29;20326;-78
2022/04/05 08:30:17;;;;;;;9.40;7.47;;;5.00;99.90;;;;;;4901054;29;20277;-76
2022/04/05 08:32:48;;;;;;;7.70;6.83;;;5.20;99.90;;;;;;4907884;29;20217;-77
2022/04/05 08:35:21;;;;;;;9.80;6.87;;;5.20;99.90;;;;;;4898390;29;20238;-78
2022/04/05 08:37:52;;;;;;;9.57;7.13;;;5.30;99.90;;;;;;4910408;29;20213;-80
2022/04/05 08:40:22;;;;;;;7.77;6.50;;;5.30;99.90;;;;;;4916811;29;20304;-77
2022/04/05 08:42:52;;;;;;;6.80;5.43;;;5.40;99.90;;;;;;4900632;29;20222;-76
2022/04/05 08:45:22;;;;;;;7.10;5.90;;;5.50;99.90;;;;;;4898087;29;20224;-77
2022/04/05 08:47:52;;;;;;;7.37;6.00;;;5.40;99.90;;;;;;4898560;29;20384;-77
2022/04/05 08:50:23;;;;;;;7.63;6.40;;;5.50;99.90;;;;;;4898399;29;20198;-79
2022/04/05 08:52:54;;;;;;;7.27;6.13;;;5.40;99.90;;;;;;4898136;29;20216;-76
2022/04/05 08:55:22;;;;;;;8.17;6.40;;;5.50;99.90;;;;;;4915621;29;20221;-78
2022/04/05 08:57:51;;;;;;;7.33;6.00;;;5.40;99.90;;;;;;4916790;29;20319;-79
2022/04/05 09:00:21;;;;;;;8.50;6.37;;;5.30;99.90;;;;;;4918124;29;20308;-77
2022/04/05 09:02:55;;;;;;;7.77;6.30;;;5.30;99.90;;;;;;4920441;29;20229;-78
2022/04/05 09:05:30;;;;;;;6.97;5.90;;;5.30;99.90;;;;;;4915093;29;20300;-75
2022/04/05 09:08:14;;;;;;;10.60;6.50;;;5.40;99.90;;;;;;4917882;29;20201;-79
2022/04/05 09:10:42;;;;;;;10.27;6.27;;;5.30;99.90;;;;;;4918878;29;20233;-77
2022/04/05 09:13:13;;;;;;;7.33;6.13;;;5.30;99.90;;;;;;4909601;29;20261;-80
2022/04/05 09:15:44;;;;;;;7.83;6.03;;;5.40;99.90;;;;;;4915204;29;20272;-77
2022/04/05 09:18:12;;;;;;;8.80;6.33;;;5.40;99.90;;;;;;4916109;29;20646;-77
2022/04/05 09:20:49;;;;;;;8.47;6.60;;;5.50;99.90;;;;;;4919567;29;20312;-80
2022/04/05 09:23:25;;;;;;;8.13;6.00;;;5.40;99.90;;;;;;4916690;29;20727;-79
2022/04/05 09:25:58;;;;;;;8.00;6.30;;;5.50;99.90;;;;;;4919787;29;20210;-75
2022/04/05 09:28:29;;;;;;;7.70;5.97;;;5.50;99.90;;;;;;4931358;29;20671;-81
2022/04/05 09:31:01;;;;;;;6.70;5.63;;;5.50;99.90;;;;;;4921419;29;20584;-75
2022/04/05 09:33:32;;;;;;;7.30;6.30;;;5.60;99.90;;;;;;4917001;29;20203;-78
2022/04/05 09:39:44;;;;;;;7.33;5.83;;;5.80;99.90;;;;;;4916998;29;20215;-76
2022/04/05 09:42:12;;;;;;;8.07;6.43;;;5.80;99.90;;;;;;4912060;29;20236;-78
2022/04/05 09:44:42;;;;;;;7.60;6.13;;;5.80;99.90;;;;;;4903773;29;20214;-77
2022/04/05 09:47:14;;;;;;;6.77;6.03;;;5.80;99.90;;;;;;4902399;29;20209;-76
2022/04/05 09:49:44;;;;;;;9.03;6.23;;;5.90;99.90;;;;;;4895360;29;20240;-77
2022/04/05 09:52:25;;;;;;;8.00;6.00;;;5.90;99.90;;;;;;4899422;29;20303;-76
2022/04/05 09:54:56;;;;;;;7.30;6.20;;;5.90;99.90;;;;;;4897792;29;20264;-76
2022/04/05 09:57:32;;;;;;;7.83;6.00;;;6.00;99.90;;;;;;4914800;29;20315;-78
2022/04/05 10:00:09;;;;;;;7.13;6.43;;;6.00;99.90;;;;;;4915435;29;20284;-77
2022/04/05 10:02:38;;;;;;;6.97;5.83;;;6.00;99.90;;;;;;4896373;29;20272;-77
2022/04/05 10:05:09;;;;;;;7.57;5.83;;;6.10;99.90;;;;;;4898617;29;20221;-77
2022/04/05 10:07:38;;;;;;;8.07;6.10;;;6.10;99.90;;;;;;4899815;29;20214;-76
2022/04/05 10:10:10;;;;;;;7.70;6.13;;;6.10;99.90;;;;;;4912830;29;20272;-76
2022/04/05 10:12:43;;;;;;;8.00;6.13;;;6.20;99.90;;;;;;4905201;29;20209;-76
2022/04/05 10:15:11;;;;;;;8.03;5.77;;;6.30;99.90;;;;;;4901694;29;20297;-77
2022/04/05 10:17:45;;;;;;;8.20;6.00;;;6.40;99.90;;;;;;4909749;29;20594;-76
2022/04/05 10:20:14;;;;;;;7.43;6.23;;;6.50;99.90;;;;;;4896625;29;20202;-75
2022/04/05 10:22:42;;;;;;;6.13;5.30;;;6.70;99.90;;;;;;4896776;29;20249;-76
2022/04/05 10:25:12;;;;;;;8.07;5.73;;;6.70;99.90;;;;;;4899981;29;20236;-77
2022/04/05 10:27:40;;;;;;;7.27;5.33;;;6.70;99.90;;;;;;4901947;29;20295;-75
2022/04/05 10:30:18;;;;;;;7.27;6.03;;;6.80;99.90;;;;;;4925189;29;20221;-74
2022/04/05 10:32:53;;;;;;;7.87;5.97;;;6.90;99.90;;;;;;4915412;29;20288;-78
2022/04/05 10:35:25;;;;;;;7.33;5.83;;;6.90;99.90;;;;;;4908362;29;20220;-79
2022/04/05 10:38:11;;;;;;;7.30;6.47;;;7.00;99.90;;;;;;4918227;29;20224;-77
2022/04/05 10:40:42;;;;;;;7.00;5.50;;;7.20;99.90;;;;;;4908164;29;20215;-78
2022/04/05 10:43:18;;;;;;;8.70;5.70;;;7.40;99.90;;;;;;4909184;29;20664;-78
2022/04/05 10:45:48;;;;;;;6.63;5.60;;;7.30;99.90;;;;;;4910658;29;20243;-76
2022/04/05 10:48:18;;;;;;;6.33;5.40;;;7.30;99.90;;;;;;4919232;29;20577;-76
2022/04/05 10:51:30;;;;;;;7.23;5.70;;;7.40;99.90;;;;;;4918417;29;20201;-77
2022/04/05 10:54:20;;;;;;;6.20;5.53;;;7.50;99.90;;;;;;4916628;29;20193;-77
2022/04/05 10:57:34;;;;;;;7.60;5.77;;;7.60;99.90;;;;;;4905029;29;20244;-75
2022/04/05 11:00:11;;;;;;;6.87;5.67;;;7.50;99.90;;;;;;4918286;29;20228;-77
2022/04/05 11:02:45;;;;;;;7.60;5.70;;;7.60;99.90;;;;;;4899779;29;20263;-78
2022/04/05 11:05:41;;;;;;;8.07;5.67;;;7.60;99.90;;;;;;4910075;29;20232;-76
2022/04/05 11:08:17;;;;;;;6.77;5.70;;;7.70;99.90;;;;;;4900340;29;20212;-77
2022/04/05 11:10:52;;;;;;;8.37;6.33;;;7.70;99.90;;;;;;4901776;29;20238;-78
2022/04/05 11:13:36;;;;;;;7.03;5.70;;;7.70;99.90;;;;;;4899387;29;20815;-80
2022/04/05 11:16:11;;;;;;;7.23;5.67;;;7.80;99.90;;;;;;4907784;29;20201;-77
2022/04/05 11:18:41;;;;;;;6.70;5.40;;;7.90;99.90;;;;;;4900220;29;20237;-77
2022/04/05 11:21:10;;;;;;;6.80;5.77;;;8.00;99.90;;;;;;4901716;29;20307;-78
2022/04/05 11:23:57;;;;;;;9.77;7.17;;;8.00;99.90;;;;;;4908698;29;20255;-77
2022/04/05 11:26:33;;;;;;;10.07;6.87;;;8.00;99.90;;;;;;4907591;29;20269;-76
2022/04/05 11:29:03;;;;;;;7.10;6.00;;;8.10;99.90;;;;;;4910134;29;20209;-76
2022/04/05 11:31:37;;;;;;;8.17;6.17;;;8.10;99.90;;;;;;4906603;29;20298;-76
2022/04/05 11:34:34;;;;;;;6.30;5.20;;;8.30;99.90;;;;;;4909960;29;20686;-76
2022/04/05 11:37:03;;;;;;;7.00;5.10;;;8.30;99.90;;;;;;4904223;29;20269;-77
2022/04/05 11:39:37;;;;;;;8.60;5.90;;;8.40;99.90;;;;;;4907276;29;20229;-75
2022/04/05 11:42:05;;;;;;;6.70;5.83;;;8.70;99.90;;;;;;4906221;29;20933;-76
2022/04/05 11:44:34;;;;;;;6.90;5.90;;;9.10;99.90;;;;;;4905882;29;20224;-76
2022/04/05 11:47:05;;;;;;;6.07;5.10;;;9.50;99.90;;;;;;4907579;29;20237;-77
2022/04/05 11:49:43;;;;;;;5.00;4.50;;;9.60;99.90;;;;;;4904023;29;20209;-76
2022/04/05 11:52:12;;;;;;;5.80;4.67;;;9.70;99.90;;;;;;4901511;29;20304;-77
2022/04/05 11:57:23;;;;;;;6.20;4.97;;;9.80;99.90;;;;;;4907096;29;20271;-77
2022/04/05 12:00:05;;;;;;;6.17;4.57;;;9.50;99.90;;;;;;4908031;29;20216;-76
2022/04/05 12:02:35;;;;;;;5.43;4.90;;;9.40;99.90;;;;;;4909361;29;20237;-77
2022/04/05 12:05:04;;;;;;;5.97;4.80;;;9.40;99.90;;;;;;4913087;29;20233;-77
2022/04/05 12:07:35;;;;;;;5.43;4.80;;;9.40;99.90;;;;;;4910706;29;20220;-76
2022/04/05 12:10:06;;;;;;;6.07;4.83;;;9.40;99.90;;;;;;4905414;29;20205;-76
2022/04/05 12:12:38;;;;;;;5.83;4.80;;;9.50;99.90;;;;;;4910514;29;20694;-76
2022/04/05 12:15:20;;;;;;;5.90;4.60;;;9.60;99.90;;;;;;4917309;29;20261;-76
2022/04/05 12:17:51;;;;;;;5.67;4.80;;;9.60;99.90;;;;;;4917942;29;20568;-76
2022/04/05 12:20:20;;;;;;;5.47;4.23;;;9.50;99.90;;;;;;4906538;29;20331;-76
2022/04/05 12:22:48;;;;;;;6.43;4.43;;;9.60;99.90;;;;;;4906138;29;20214;-77
2022/04/05 12:25:18;;;;;;;5.10;4.20;;;9.90;99.90;;;;;;4907925;29;20212;-76
2022/04/05 12:27:56;;;;;;;5.33;4.63;;;10.10;99.90;;;;;;4915138;29;20300;-76
2022/04/05 12:30:29;;;;;;;6.27;4.27;;;10.10;99.90;;;;;;4919040;29;20224;-76
2022/04/05 12:33:03;;;;;;;6.07;4.47;;;10.10;99.90;;;;;;4908318;29;20205;-76
2022/04/05 12:35:32;;;;;;;8.47;4.20;;;10.30;99.90;;;;;;4908086;29;20285;-76
2022/04/05 12:38:00;;;;;;;5.07;4.13;;;10.40;99.90;;;;;;4901068;29;20234;-76
2022/04/05 12:40:30;;;;;;;6.03;4.00;;;10.70;99.90;;;;;;4898862;29;20694;-76
2022/04/05 12:43:14;;;;;;;6.37;4.17;;;10.90;99.90;;;;;;4909329;29;20241;-75
2022/04/05 12:45:47;;;;;;;5.07;4.03;;;11.10;99.90;;;;;;4908687;29;20249;-77
2022/04/05 12:48:19;;;;;;;4.97;4.10;;;11.00;99.90;;;;;;4907838;29;20209;-74
2022/04/05 12:50:49;;;;;;;5.33;4.17;;;10.80;99.90;;;;;;4899245;29;20220;-78
2022/04/05 12:53:30;;;;;;;7.57;4.30;;;10.80;99.90;;;;;;4899291;29;20202;-76
2022/04/05 12:56:08;;;;;;;5.70;4.53;;;10.70;99.90;;;;;;4906429;29;20228;-76
2022/04/05 12:58:45;;;;;;;4.23;3.80;;;10.70;99.90;;;;;;4922730;29;20253;-74
2022/04/05 13:01:21;;;;;;;6.13;4.60;;;10.80;99.90;;;;;;4919566;29;20212;-76
2022/04/05 13:03:58;;;;;;;5.00;3.93;;;10.80;99.90;;;;;;4909706;29;20213;-76
2022/04/05 13:06:31;;;;;;;4.50;3.77;;;10.60;99.90;;;;;;4908495;29;20221;-75
2022/04/05 13:09:10;;;;;;;6.53;4.30;;;10.50;99.90;;;;;;4908658;29;20201;-75
2022/04/05 13:11:39;;;;;;;5.37;4.30;;;10.40;99.90;;;;;;4909760;29;20209;-76
2022/04/05 13:14:09;;;;;;;5.30;4.70;;;10.30;99.90;;;;;;4899494;29;20308;-76
2022/04/05 13:16:43;;;;;;;5.03;4.10;;;10.30;99.90;;;;;;4897202;29;20209;-76
2022/04/05 13:19:14;;;;;;;5.27;4.60;;;10.30;99.90;;;;;;4896452;29;20242;-76
2022/04/05 13:21:45;;;;;;;6.80;4.83;;;10.20;99.90;;;;;;4909315;29;20205;-76
2022/04/05 13:24:15;;;;;;;5.50;4.47;;;10.10;99.90;;;;;;4915613;29;20209;-75
2022/04/05 13:26:48;;;;;;;5.20;4.10;;;10.10;99.90;;;;;;4915767;29;20259;-78
2022/04/05 13:29:23;;;;;;;5.80;4.13;;;10.20;99.90;;;;;;4895019;29;20253;-76
2022/04/05 13:31:55;;;;;;;5.13;4.37;;;10.20;99.90;;;;;;4902705;29;20251;-76
2022/04/05 13:34:30;;;;;;;5.87;4.63;;;10.00;99.90;;;;;;4915378;29;20217;-77
2022/04/05 13:37:00;;;;;;;5.73;4.47;;;10.10;99.90;;;;;;4900700;29;20205;-75
2022/04/05 13:39:34;;;;;;;5.00;4.07;;;10.10;99.90;;;;;;4896844;29;20230;-78
2022/04/05 13:42:04;;;;;;;7.30;4.90;;;10.10;99.90;;;;;;4896399;29;20730;-78
2022/04/05 13:44:34;;;;;;;6.33;4.83;;;10.20;99.90;;;;;;4897704;29;20209;-76
2022/04/05 13:47:04;;;;;;;6.50;4.23;;;10.20;99.90;;;;;;4896420;29;20281;-80
2022/04/05 13:49:34;;;;;;;4.87;4.30;;;10.30;99.90;;;;;;4896822;29;20210;-77
2022/04/05 13:52:02;;;;;;;6.10;4.80;;;10.20;99.90;;;;;;4897218;29;20247;-74
2022/04/05 13:54:50;;;;;;;7.47;4.93;;;10.30;99.90;;;;;;4898566;29;20218;-76
2022/04/05 13:57:20;;;;;;;5.37;4.43;;;10.40;99.90;;;;;;4896986;29;20590;-76
2022/04/05 13:59:49;;;;;;;6.00;4.60;;;10.50;99.90;;;;;;4895724;29;20236;-75
2022/04/05 14:02:18;;;;;;;8.00;4.53;;;10.60;99.90;;;;;;4896544;29;20668;-77
2022/04/05 14:04:48;;;;;;;5.87;4.47;;;10.70;99.90;;;;;;4896232;29;20248;-76
2022/04/05 14:07:17;;;;;;;6.10;4.53;;;10.70;99.90;;;;;;4897563;29;20224;-75
2022/04/05 14:09:46;;;;;;;4.80;4.23;;;10.80;99.90;;;;;;4896692;29;20222;-76
2022/04/05 14:12:14;;;;;;;7.30;4.57;;;10.90;99.90;;;;;;4896988;29;20238;-75
2022/04/05 14:14:42;;;;;;;6.63;4.47;;;10.90;99.90;;;;;;4897245;29;20217;-76
2022/04/05 14:17:11;;;;;;;5.73;4.60;;;11.00;99.90;;;;;;4896799;29;20273;-76
2022/04/05 14:19:41;;;;;;;6.03;4.30;;;11.10;99.90;;;;;;4896476;29;20229;-76
2022/04/05 14:22:12;;;;;;;4.57;4.00;;;11.10;99.90;;;;;;4899511;29;20289;-77
2022/04/05 14:24:40;;;;;;;5.83;4.47;;;11.10;99.90;;;;;;4906379;29;20296;-76
2022/04/05 14:27:09;;;;;;;5.63;4.50;;;11.00;99.90;;;;;;4915477;29;20613;-76
2022/04/05 14:29:38;;;;;;;4.93;4.33;;;10.90;99.90;;;;;;4915645;29;20235;-77
2022/04/05 14:32:08;;;;;;;5.60;4.50;;;10.90;99.90;;;;;;4916388;29;20305;-77
2022/04/05 14:34:37;;;;;;;5.87;4.10;;;10.80;99.90;;;;;;4916695;29;20224;-75
2022/04/05 14:37:05;;;;;;;5.10;4.60;;;10.70;99.90;;;;;;4916019;29;20208;-76
2022/04/05 14:39:39;;;;;;;5.13;4.43;;;10.70;99.90;;;;;;4907892;29;20268;-76
2022/04/05 14:42:07;;;;;;;5.93;4.80;;;10.60;99.90;;;;;;4896520;29;20269;-76
2022/04/05 14:44:35;;;;;;;6.67;5.20;;;10.60;99.90;;;;;;4896616;29;20291;-75
2022/04/05 14:47:05;;;;;;;5.70;4.63;;;10.70;99.90;;;;;;4896661;29;20266;-76
2022/04/05 14:49:33;;;;;;;5.70;4.50;;;10.70;99.90;;;;;;4897665;29;20270;-78
2022/04/05 14:52:01;;;;;;;5.73;4.40;;;10.80;99.90;;;;;;4896699;29;20260;-77
2022/04/05 14:54:29;;;;;;;5.90;4.33;;;10.80;99.90;;;;;;4897157;29;20218;-79
2022/04/05 14:56:59;;;;;;;4.93;4.40;;;10.80;99.90;;;;;;4896874;29;20254;-78
2022/04/05 14:59:28;;;;;;;5.60;4.57;;;10.70;99.90;;;;;;4896320;29;20237;-75
2022/04/05 15:01:56;;;;;;;6.40;4.23;;;10.50;99.90;;;;;;4896580;29;20252;-75
2022/04/05 15:04:27;;;;;;;7.63;6.17;;;10.30;99.90;;;;;;4896358;29;20243;-76
2022/04/05 15:07:01;;;;;;;11.00;9.80;;;10.30;99.90;;;;;;4896450;29;20221;-75
2022/04/05 15:09:30;;;;;;;7.83;4.53;;;10.40;99.90;;;;;;4896095;29;20239;-76
2022/04/05 15:12:00;;;;;;;5.97;4.47;;;10.30;99.90;;;;;;4896355;29;20224;-76
2022/04/05 15:14:28;;;;;;;5.63;4.80;;;10.40;99.90;;;;;;4896507;29;20225;-75
2022/04/05 15:17:04;;;;;;;5.80;4.20;;;10.40;99.90;;;;;;4898073;29;20744;-76
2022/04/05 15:19:33;;;;;;;6.03;4.80;;;10.40;99.90;;;;;;4899505;29;20361;-77
2022/04/05 15:22:01;;;;;;;5.93;5.30;;;10.40;99.90;;;;;;4899831;29;20226;-77
2022/04/05 15:24:29;;;;;;;6.97;4.60;;;10.40;99.90;;;;;;4899560;29;20213;-77
2022/04/05 15:26:59;;;;;;;5.67;4.43;;;10.40;99.90;;;;;;4918269;29;20590;-77
2022/04/05 15:29:36;;;;;;;5.13;4.43;;;10.20;99.90;;;;;;4918728;29;20604;-76
2022/04/05 15:32:10;;;;;;;5.10;4.27;;;10.30;99.90;;;;;;4907873;29;20260;-76
2022/04/05 15:34:38;;;;;;;5.70;4.60;;;10.30;99.90;;;;;;4900138;29;20208;-76
2022/04/05 15:37:12;;;;;;;4.97;4.20;;;10.20;99.90;;;;;;4901760;29;20233;-76
2022/04/05 15:39:41;;;;;;;7.70;4.53;;;10.20;99.90;;;;;;4912929;29;20304;-77
2022/04/05 15:42:13;;;;;;;6.67;5.37;;;10.10;99.90;;;;;;4918577;29;20699;-77
2022/04/05 15:44:41;;;;;;;5.23;4.30;;;10.10;99.90;;;;;;4919718;29;20291;-78
2022/04/05 15:47:11;;;;;;;5.30;4.10;;;10.10;99.90;;;;;;4919862;29;20217;-74
2022/04/05 15:49:41;;;;;;;5.30;4.40;;;10.00;99.90;;;;;;4920823;29;20215;-80
2022/04/05 15:52:12;;;;;;;5.93;4.33;;;9.90;99.90;;;;;;4918982;29;20269;-76
2022/04/05 15:54:41;;;;;;;5.37;4.13;;;9.90;99.90;;;;;;4919317;29;20244;-75
2022/04/05 15:57:09;;;;;;;5.53;4.20;;;9.90;99.90;;;;;;4919509;29;20272;-75
2022/04/05 15:59:39;;;;;;;5.00;4.30;;;9.80;99.90;;;;;;4920529;29;20661;-74
2022/04/05 16:02:07;;;;;;;6.50;4.50;;;9.70;99.90;;;;;;4918183;29;20683;-74
2022/04/05 16:04:35;;;;;;;5.03;4.53;;;9.70;99.90;;;;;;4918824;29;20228;-74
2022/04/05 16:07:04;;;;;;;5.50;4.37;;;9.70;99.90;;;;;;4919432;29;20217;-77
2022/04/05 16:09:33;;;;;;;5.77;4.40;;;9.70;99.90;;;;;;4918771;29;20601;-77
2022/04/05 16:12:05;;;;;;;6.47;4.47;;;9.70;99.90;;;;;;4912850;29;20224;-75
2022/04/05 16:14:34;;;;;;;5.80;4.37;;;9.60;99.90;;;;;;4917671;29;20205;-78
2022/04/05 16:17:04;;;;;;;6.63;4.43;;;9.60;99.90;;;;;;4917629;29;20217;-77
2022/04/05 16:19:32;;;;;;;6.37;4.47;;;9.50;99.90;;;;;;4917110;29;20262;-79
2022/04/05 16:22:01;;;;;;;5.50;4.43;;;9.60;99.90;;;;;;4917872;29;20243;-76
2022/04/05 16:24:29;;;;;;;5.43;4.40;;;9.50;99.90;;;;;;4917526;29;20212;-77
2022/04/05 16:26:57;;;;;;;5.00;4.30;;;9.50;99.90;;;;;;4924325;29;20248;-77
2022/04/05 16:29:26;;;;;;;5.37;4.53;;;9.40;99.90;;;;;;4933962;29;20220;-76
2022/04/05 16:31:55;;;;;;;7.07;4.47;;;9.40;99.90;;;;;;4918515;29;20217;-78
2022/04/05 16:34:24;;;;;;;4.90;4.30;;;9.40;99.90;;;;;;4917449;29;20301;-77
2022/04/05 16:36:52;;;;;;;5.50;4.60;;;9.40;99.90;;;;;;4917035;29;20267;-76
2022/04/05 16:39:21;;;;;;;7.40;4.30;;;9.40;99.90;;;;;;4917153;29;20309;-78
2022/04/05 16:41:49;;;;;;;5.03;3.90;;;9.40;99.90;;;;;;4917873;29;20240;-79
2022/04/05 16:44:18;;;;;;;6.23;4.20;;;9.40;99.90;;;;;;4917137;29;20220;-74
2022/04/05 16:46:50;;;;;;;7.60;4.40;;;9.40;99.90;;;;;;4916649;29;20220;-78
2022/04/05 16:49:20;;;;;;;5.90;4.70;;;9.30;99.90;;;;;;4916752;29;20585;-76
2022/04/05 16:51:50;;;;;;;5.70;4.67;;;9.40;99.90;;;;;;4911349;29;20213;-78
2022/04/05 16:54:19;;;;;;;7.10;5.30;;;9.40;99.90;;;;;;4903344;29;20318;-77
2022/04/05 16:56:49;;;;;;;6.93;5.27;;;9.40;99.90;;;;;;4916041;29;20213;-77
2022/04/05 16:59:18;;;;;;;5.87;4.30;;;9.40;99.90;;;;;;4912699;29;20213;-79
2022/04/05 17:01:46;;;;;;;7.20;5.50;;;9.40;99.90;;;;;;4916577;29;20291;-77
2022/04/05 17:04:14;;;;;;;7.20;5.00;;;9.40;99.90;;;;;;4916554;29;20732;-78
2022/04/05 17:06:42;;;;;;;7.63;5.53;;;9.40;99.90;;;;;;4916335;29;20244;-77
2022/04/05 17:09:12;;;;;;;7.40;6.00;;;9.40;99.90;;;;;;4906691;29;20629;-77
2022/04/05 17:11:40;;;;;;;5.73;4.00;;;9.40;99.90;;;;;;4916033;29;20209;-76
2022/04/05 17:14:08;;;;;;;7.73;5.07;;;9.30;99.90;;;;;;4915915;29;20272;-77
2022/04/05 17:16:37;;;;;;;5.73;4.43;;;9.30;99.90;;;;;;4916135;29;20300;-77
2022/04/05 17:19:08;;;;;;;6.37;4.30;;;9.30;99.90;;;;;;4902801;29;20217;-76
2022/04/05 17:21:36;;;;;;;5.07;4.03;;;9.30;99.90;;;;;;4916326;29;20242;-75